sensor_id;sensor_type;location;lat;lon;timestamp;temperature;humidity
66740;DHT22;53653;52.188;8.602;2023-05-16T00:00:24;11.62;80.50
66740;DHT22;53653;52.188;8.602;2023-05-16T00:02:50;11.67;80.13
66740;DHT22;53653;52.188;8.602;2023-05-16T00:05:16;11.67;80.36
66740;DHT22;53653;52.188;8.602;2023-05-16T00:07:45;11.53;81.01
66740;DHT22;53653;52.188;8.602;2023-05-16T00:10:12;11.61;80.58
66740;DHT22;53653;52.188;8.602;2023-05-16T00:12:38;11.56;80.97
66740;DHT22;53653;52.188;8.602;2023-05-16T00:15:05;11.63;80.69
66740;DHT22;53653;52.188;8.602;2023-05-16T00:17:34;11.73;80.48
66740;DHT22;53653;52.188;8.602;2023-05-16T00:20:00;11.52;81.21
66740;DHT22;53653;52.188;8.602;2023-05-16T00:22:32;11.52;81.47
66740;DHT22;53653;52.188;8.602;2023-05-16T00:24:57;11.46;81.56
66740;DHT22;53653;52.188;8.602;2023-05-16T00:27:23;11.42;81.99
66740;DHT22;53653;52.188;8.602;2023-05-16T00:29:48;11.63;81.01
66740;DHT22;53653;52.188;8.602;2023-05-16T00:32:14;11.65;80.51
66740;DHT22;53653;52.188;8.602;2023-05-16T00:34:40;11.56;80.42
66740;DHT22;53653;52.188;8.602;2023-05-16T00:37:05;11.52;80.90
66740;DHT22;53653;52.188;8.602;2023-05-16T00:39:31;11.56;81.21
66740;DHT22;53653;52.188;8.602;2023-05-16T00:41:56;11.56;80.56
66740;DHT22;53653;52.188;8.602;2023-05-16T00:44:23;11.69;80.27
66740;DHT22;53653;52.188;8.602;2023-05-16T00:46:48;11.77;79.86
66740;DHT22;53653;52.188;8.602;2023-05-16T00:49:14;11.79;79.57
66740;DHT22;53653;52.188;8.602;2023-05-16T00:51:40;11.89;79.20
66740;DHT22;53653;52.188;8.602;2023-05-16T00:54:06;11.82;79.39
66740;DHT22;53653;52.188;8.602;2023-05-16T00:56:33;11.80;79.76
66740;DHT22;53653;52.188;8.602;2023-05-16T00:58:59;11.87;79.39
66740;DHT22;53653;52.188;8.602;2023-05-16T01:01:25;11.82;79.73
66740;DHT22;53653;52.188;8.602;2023-05-16T01:03:51;11.66;80.65
66740;DHT22;53653;52.188;8.602;2023-05-16T01:06:17;11.80;79.60
66740;DHT22;53653;52.188;8.602;2023-05-16T01:08:43;11.77;79.85
66740;DHT22;53653;52.188;8.602;2023-05-16T01:12:01;11.67;80.65
66740;DHT22;53653;52.188;8.602;2023-05-16T01:14:54;11.75;80.21
66740;DHT22;53653;52.188;8.602;2023-05-16T01:26:10;11.63;81.33
66740;DHT22;53653;52.188;8.602;2023-05-16T01:28:37;11.55;82.45
66740;DHT22;53653;52.188;8.602;2023-05-16T01:31:03;11.53;82.46
66740;DHT22;53653;52.188;8.602;2023-05-16T01:33:29;11.38;83.57
66740;DHT22;53653;52.188;8.602;2023-05-16T01:36:24;11.39;82.20
66740;DHT22;53653;52.188;8.602;2023-05-16T01:41:42;11.03;82.36
66740;DHT22;53653;52.188;8.602;2023-05-16T01:44:24;11.10;81.74
66740;DHT22;53653;52.188;8.602;2023-05-16T01:46:55;11.07;81.97
66740;DHT22;53653;52.188;8.602;2023-05-16T01:49:27;11.04;83.14
66740;DHT22;53653;52.188;8.602;2023-05-16T01:52:00;10.96;84.15
66740;DHT22;53653;52.188;8.602;2023-05-16T01:54:30;10.81;85.40
66740;DHT22;53653;52.188;8.602;2023-05-16T01:56:56;10.80;85.15
66740;DHT22;53653;52.188;8.602;2023-05-16T01:59:23;10.73;85.32
66740;DHT22;53653;52.188;8.602;2023-05-16T02:01:53;10.71;84.82
66740;DHT22;53653;52.188;8.602;2023-05-16T02:04:19;10.64;85.05
66740;DHT22;53653;52.188;8.602;2023-05-16T02:06:44;10.64;83.90
66740;DHT22;53653;52.188;8.602;2023-05-16T02:09:10;10.64;83.74
66740;DHT22;53653;52.188;8.602;2023-05-16T02:11:39;10.67;83.86
66740;DHT22;53653;52.188;8.602;2023-05-16T02:14:04;10.70;83.59
66740;DHT22;53653;52.188;8.602;2023-05-16T02:16:30;10.67;82.75
66740;DHT22;53653;52.188;8.602;2023-05-16T02:18:57;10.61;83.19
66740;DHT22;53653;52.188;8.602;2023-05-16T02:21:23;10.59;83.40
66740;DHT22;53653;52.188;8.602;2023-05-16T02:23:49;10.60;82.81
66740;DHT22;53653;52.188;8.602;2023-05-16T02:26:15;10.57;82.86
66740;DHT22;53653;52.188;8.602;2023-05-16T02:28:40;10.53;83.48
66740;DHT22;53653;52.188;8.602;2023-05-16T02:31:06;10.60;82.80
66740;DHT22;53653;52.188;8.602;2023-05-16T02:33:32;10.70;82.48
66740;DHT22;53653;52.188;8.602;2023-05-16T02:35:59;10.64;82.35
66740;DHT22;53653;52.188;8.602;2023-05-16T02:38:24;10.59;82.19
66740;DHT22;53653;52.188;8.602;2023-05-16T02:40:50;10.50;82.09
66740;DHT22;53653;52.188;8.602;2023-05-16T02:43:15;10.48;82.24
66740;DHT22;53653;52.188;8.602;2023-05-16T02:45:41;10.42;82.41
66740;DHT22;53653;52.188;8.602;2023-05-16T02:48:07;10.35;82.87
66740;DHT22;53653;52.188;8.602;2023-05-16T02:50:33;10.26;83.41
66740;DHT22;53653;52.188;8.602;2023-05-16T02:52:59;10.32;83.71
66740;DHT22;53653;52.188;8.602;2023-05-16T02:55:27;10.50;82.18
66740;DHT22;53653;52.188;8.602;2023-05-16T02:57:53;10.57;82.46
66740;DHT22;53653;52.188;8.602;2023-05-16T03:00:19;10.49;82.28
66740;DHT22;53653;52.188;8.602;2023-05-16T03:02:45;10.53;81.70
66740;DHT22;53653;52.188;8.602;2023-05-16T03:05:11;10.52;81.84
66740;DHT22;53653;52.188;8.602;2023-05-16T03:07:37;10.40;81.73
66740;DHT22;53653;52.188;8.602;2023-05-16T03:10:04;10.38;81.00
66740;DHT22;53653;52.188;8.602;2023-05-16T03:12:30;10.35;81.32
66740;DHT22;53653;52.188;8.602;2023-05-16T03:14:56;10.18;81.84
66740;DHT22;53653;52.188;8.602;2023-05-16T03:17:22;10.20;82.20
66740;DHT22;53653;52.188;8.602;2023-05-16T03:19:48;10.29;81.16
66740;DHT22;53653;52.188;8.602;2023-05-16T03:22:13;10.19;81.41
66740;DHT22;53653;52.188;8.602;2023-05-16T03:24:41;10.20;81.63
66740;DHT22;53653;52.188;8.602;2023-05-16T03:27:10;10.36;80.21
66740;DHT22;53653;52.188;8.602;2023-05-16T03:29:36;10.33;79.72
66740;DHT22;53653;52.188;8.602;2023-05-16T03:32:02;10.35;79.42
66740;DHT22;53653;52.188;8.602;2023-05-16T03:34:28;10.36;79.17
66740;DHT22;53653;52.188;8.602;2023-05-16T03:36:53;10.29;79.17
66740;DHT22;53653;52.188;8.602;2023-05-16T03:39:20;10.22;79.54
66740;DHT22;53653;52.188;8.602;2023-05-16T03:41:45;10.16;80.03
66740;DHT22;53653;52.188;8.602;2023-05-16T03:44:11;10.02;79.77
66740;DHT22;53653;52.188;8.602;2023-05-16T03:46:37;10.01;80.54
66740;DHT22;53653;52.188;8.602;2023-05-16T03:49:02;9.97;81.10
66740;DHT22;53653;52.188;8.602;2023-05-16T03:51:28;9.95;80.27
66740;DHT22;53653;52.188;8.602;2023-05-16T03:53:54;9.90;80.52
66740;DHT22;53653;52.188;8.602;2023-05-16T03:56:20;9.88;80.68
66740;DHT22;53653;52.188;8.602;2023-05-16T03:58:46;9.87;80.11
66740;DHT22;53653;52.188;8.602;2023-05-16T04:01:12;9.88;80.04
66740;DHT22;53653;52.188;8.602;2023-05-16T04:03:38;9.77;80.47
66740;DHT22;53653;52.188;8.602;2023-05-16T04:06:04;9.85;80.53
66740;DHT22;53653;52.188;8.602;2023-05-16T04:08:29;9.82;80.74
66740;DHT22;53653;52.188;8.602;2023-05-16T04:10:56;9.78;80.58
66740;DHT22;53653;52.188;8.602;2023-05-16T04:13:21;9.77;80.62
66740;DHT22;53653;52.188;8.602;2023-05-16T04:15:47;9.78;80.26
66740;DHT22;53653;52.188;8.602;2023-05-16T04:18:12;9.67;80.92
66740;DHT22;53653;52.188;8.602;2023-05-16T04:20:38;9.77;80.13
66740;DHT22;53653;52.188;8.602;2023-05-16T04:23:03;9.73;80.28
66740;DHT22;53653;52.188;8.602;2023-05-16T04:25:30;9.65;80.09
66740;DHT22;53653;52.188;8.602;2023-05-16T04:27:55;9.60;80.36
66740;DHT22;53653;52.188;8.602;2023-05-16T04:30:21;9.60;81.21
66740;DHT22;53653;52.188;8.602;2023-05-16T04:32:47;9.58;79.51
66740;DHT22;53653;52.188;8.602;2023-05-16T04:35:12;9.53;80.33
66740;DHT22;53653;52.188;8.602;2023-05-16T04:37:38;9.50;79.75
66740;DHT22;53653;52.188;8.602;2023-05-16T04:40:05;9.67;79.19
66740;DHT22;53653;52.188;8.602;2023-05-16T04:42:32;9.67;79.10
66740;DHT22;53653;52.188;8.602;2023-05-16T04:44:57;9.69;78.22
66740;DHT22;53653;52.188;8.602;2023-05-16T04:47:23;9.58;78.10
66740;DHT22;53653;52.188;8.602;2023-05-16T04:49:48;9.61;78.01
66740;DHT22;53653;52.188;8.602;2023-05-16T04:52:14;9.69;78.06
66740;DHT22;53653;52.188;8.602;2023-05-16T04:54:40;9.73;78.13
66740;DHT22;53653;52.188;8.602;2023-05-16T04:57:05;9.90;77.05
66740;DHT22;53653;52.188;8.602;2023-05-16T04:59:31;9.99;76.24
66740;DHT22;53653;52.188;8.602;2023-05-16T05:01:56;10.03;76.74
66740;DHT22;53653;52.188;8.602;2023-05-16T05:04:22;10.16;75.35
66740;DHT22;53653;52.188;8.602;2023-05-16T05:06:48;10.06;75.93
66740;DHT22;53653;52.188;8.602;2023-05-16T05:09:13;9.91;76.30
66740;DHT22;53653;52.188;8.602;2023-05-16T05:11:39;9.80;76.79
66740;DHT22;53653;52.188;8.602;2023-05-16T05:14:05;9.80;76.78
66740;DHT22;53653;52.188;8.602;2023-05-16T05:16:30;9.91;76.39
66740;DHT22;53653;52.188;8.602;2023-05-16T05:18:56;9.98;76.63
66740;DHT22;53653;52.188;8.602;2023-05-16T05:21:22;9.92;76.93
66740;DHT22;53653;52.188;8.602;2023-05-16T05:23:49;10.06;76.49
66740;DHT22;53653;52.188;8.602;2023-05-16T05:26:16;10.01;76.78
66740;DHT22;53653;52.188;8.602;2023-05-16T05:28:41;9.82;77.19
66740;DHT22;53653;52.188;8.602;2023-05-16T05:31:07;9.88;77.49
66740;DHT22;53653;52.188;8.602;2023-05-16T05:33:33;9.78;77.19
66740;DHT22;53653;52.188;8.602;2023-05-16T05:35:58;9.73;77.50
66740;DHT22;53653;52.188;8.602;2023-05-16T05:38:24;9.69;77.52
66740;DHT22;53653;52.188;8.602;2023-05-16T05:40:50;9.80;77.31
66740;DHT22;53653;52.188;8.602;2023-05-16T05:43:16;9.90;76.86
66740;DHT22;53653;52.188;8.602;2023-05-16T05:45:42;10.01;76.06
66740;DHT22;53653;52.188;8.602;2023-05-16T05:48:08;10.02;75.93
66740;DHT22;53653;52.188;8.602;2023-05-16T05:50:35;9.95;76.17
66740;DHT22;53653;52.188;8.602;2023-05-16T05:53:02;10.16;75.29
66740;DHT22;53653;52.188;8.602;2023-05-16T05:55:27;10.12;75.19
66740;DHT22;53653;52.188;8.602;2023-05-16T05:57:53;10.06;75.15
66740;DHT22;53653;52.188;8.602;2023-05-16T06:00:19;10.29;75.38
66740;DHT22;53653;52.188;8.602;2023-05-16T06:02:46;10.85;73.40
66740;DHT22;53653;52.188;8.602;2023-05-16T06:05:12;11.05;72.51
66740;DHT22;53653;52.188;8.602;2023-05-16T06:07:38;11.26;71.59
66740;DHT22;53653;52.188;8.602;2023-05-16T06:10:04;11.53;71.07
66740;DHT22;53653;52.188;8.602;2023-05-16T06:12:30;11.49;69.38
66740;DHT22;53653;52.188;8.602;2023-05-16T06:14:56;11.63;69.74
66740;DHT22;53653;52.188;8.602;2023-05-16T06:17:21;11.26;70.53
66740;DHT22;53653;52.188;8.602;2023-05-16T06:19:47;11.80;69.87
66740;DHT22;53653;52.188;8.602;2023-05-16T06:22:13;11.97;68.47
66740;DHT22;53653;52.188;8.602;2023-05-16T06:24:39;11.82;66.74
66740;DHT22;53653;52.188;8.602;2023-05-16T06:27:05;11.77;67.83
66740;DHT22;53653;52.188;8.602;2023-05-16T06:29:31;11.98;66.88
66740;DHT22;53653;52.188;8.602;2023-05-16T06:31:57;11.97;66.22
66740;DHT22;53653;52.188;8.602;2023-05-16T06:34:22;12.16;66.24
66740;DHT22;53653;52.188;8.602;2023-05-16T06:36:53;12.35;66.12
66740;DHT22;53653;52.188;8.602;2023-05-16T06:39:19;12.46;64.89
66740;DHT22;53653;52.188;8.602;2023-05-16T06:41:44;12.90;63.62
66740;DHT22;53653;52.188;8.602;2023-05-16T06:44:14;12.85;62.03
66740;DHT22;53653;52.188;8.602;2023-05-16T06:46:39;13.13;61.90
66740;DHT22;53653;52.188;8.602;2023-05-16T06:49:05;13.06;60.72
66740;DHT22;53653;52.188;8.602;2023-05-16T06:51:31;13.06;60.38
66740;DHT22;53653;52.188;8.602;2023-05-16T06:53:57;12.62;62.44
66740;DHT22;53653;52.188;8.602;2023-05-16T06:56:22;12.37;63.92
66740;DHT22;53653;52.188;8.602;2023-05-16T06:58:48;12.38;63.22
66740;DHT22;53653;52.188;8.602;2023-05-16T07:01:14;12.48;62.73
66740;DHT22;53653;52.188;8.602;2023-05-16T07:03:40;12.52;61.37
66740;DHT22;53653;52.188;8.602;2023-05-16T07:06:05;12.25;61.95
66740;DHT22;53653;52.188;8.602;2023-05-16T07:08:31;12.18;62.18
66740;DHT22;53653;52.188;8.602;2023-05-16T07:10:57;12.04;61.67
66740;DHT22;53653;52.188;8.602;2023-05-16T07:13:22;11.63;62.76
66740;DHT22;53653;52.188;8.602;2023-05-16T07:15:48;12.32;62.25
66740;DHT22;53653;52.188;8.602;2023-05-16T07:18:13;12.59;61.91
66740;DHT22;53653;52.188;8.602;2023-05-16T07:20:39;12.95;59.76
66740;DHT22;53653;52.188;8.602;2023-05-16T07:23:04;13.36;58.04
66740;DHT22;53653;52.188;8.602;2023-05-16T07:25:30;13.69;57.86
66740;DHT22;53653;52.188;8.602;2023-05-16T07:27:56;14.12;56.04
66740;DHT22;53653;52.188;8.602;2023-05-16T07:30:21;13.58;57.17
66740;DHT22;53653;52.188;8.602;2023-05-16T07:32:48;13.44;57.19
66740;DHT22;53653;52.188;8.602;2023-05-16T07:35:13;13.07;58.06
66740;DHT22;53653;52.188;8.602;2023-05-16T07:37:39;12.53;58.89
66740;DHT22;53653;52.188;8.602;2023-05-16T07:40:07;12.63;58.57
66740;DHT22;53653;52.188;8.602;2023-05-16T07:42:32;12.82;58.56
66740;DHT22;53653;52.188;8.602;2023-05-16T07:44:58;13.58;57.85
66740;DHT22;53653;52.188;8.602;2023-05-16T07:47:23;14.05;56.52
66740;DHT22;53653;52.188;8.602;2023-05-16T07:49:49;14.10;56.18
66740;DHT22;53653;52.188;8.602;2023-05-16T07:52:15;13.48;57.00
66740;DHT22;53653;52.188;8.602;2023-05-16T07:54:40;13.54;56.98
66740;DHT22;53653;52.188;8.602;2023-05-16T07:57:06;14.13;56.59
66740;DHT22;53653;52.188;8.602;2023-05-16T07:59:31;14.54;54.59
66740;DHT22;53653;52.188;8.602;2023-05-16T08:01:57;14.47;54.75
66740;DHT22;53653;52.188;8.602;2023-05-16T08:04:22;14.26;54.64
66740;DHT22;53653;52.188;8.602;2023-05-16T08:06:48;14.41;53.07
66740;DHT22;53653;52.188;8.602;2023-05-16T08:09:14;14.50;53.49
66740;DHT22;53653;52.188;8.602;2023-05-16T08:11:40;14.74;53.60
66740;DHT22;53653;52.188;8.602;2023-05-16T08:14:09;14.29;53.25
66740;DHT22;53653;52.188;8.602;2023-05-16T08:16:35;14.23;53.59
66740;DHT22;53653;52.188;8.602;2023-05-16T08:19:01;14.40;53.56
66740;DHT22;53653;52.188;8.602;2023-05-16T08:21:26;15.06;51.87
66740;DHT22;53653;52.188;8.602;2023-05-16T08:23:53;15.02;51.98
66740;DHT22;53653;52.188;8.602;2023-05-16T08:26:18;15.38;51.82
66740;DHT22;53653;52.188;8.602;2023-05-16T08:28:43;14.32;53.71
66740;DHT22;53653;52.188;8.602;2023-05-16T08:31:09;13.74;54.21
66740;DHT22;53653;52.188;8.602;2023-05-16T08:33:35;13.09;55.91
66740;DHT22;53653;52.188;8.602;2023-05-16T08:36:00;12.95;56.42
66740;DHT22;53653;52.188;8.602;2023-05-16T08:38:26;13.58;54.56
66740;DHT22;53653;52.188;8.602;2023-05-16T08:40:51;14.54;53.42
66740;DHT22;53653;52.188;8.602;2023-05-16T08:43:17;15.05;50.62
66740;DHT22;53653;52.188;8.602;2023-05-16T08:45:43;15.70;49.36
66740;DHT22;53653;52.188;8.602;2023-05-16T08:48:09;15.42;49.25
66740;DHT22;53653;52.188;8.602;2023-05-16T08:50:35;15.05;50.61
66740;DHT22;53653;52.188;8.602;2023-05-16T08:53:05;14.47;53.01
66740;DHT22;53653;52.188;8.602;2023-05-16T08:55:32;14.09;54.26
66740;DHT22;53653;52.188;8.602;2023-05-16T08:57:59;13.75;54.15
66740;DHT22;53653;52.188;8.602;2023-05-16T09:00:26;14.68;53.68
66740;DHT22;53653;52.188;8.602;2023-05-16T09:02:52;14.96;51.67
66740;DHT22;53653;52.188;8.602;2023-05-16T09:05:17;15.38;50.53
66740;DHT22;53653;52.188;8.602;2023-05-16T09:07:44;15.59;51.00
66740;DHT22;53653;52.188;8.602;2023-05-16T09:10:10;14.63;50.14
66740;DHT22;53653;52.188;8.602;2023-05-16T09:12:38;14.22;52.90
66740;DHT22;53653;52.188;8.602;2023-05-16T09:15:05;14.40;52.25
66740;DHT22;53653;52.188;8.602;2023-05-16T09:17:42;14.59;50.63
66740;DHT22;53653;52.188;8.602;2023-05-16T09:20:13;14.46;50.90
66740;DHT22;53653;52.188;8.602;2023-05-16T09:22:39;14.40;52.49
66740;DHT22;53653;52.188;8.602;2023-05-16T09:25:06;14.64;51.84
66740;DHT22;53653;52.188;8.602;2023-05-16T09:27:32;14.61;51.90
66740;DHT22;53653;52.188;8.602;2023-05-16T09:29:58;14.33;52.40
66740;DHT22;53653;52.188;8.602;2023-05-16T09:32:24;13.86;54.35
66740;DHT22;53653;52.188;8.602;2023-05-16T09:34:51;14.16;53.31
66740;DHT22;53653;52.188;8.602;2023-05-16T09:37:18;14.50;53.26
66740;DHT22;53653;52.188;8.602;2023-05-16T09:39:48;14.68;53.53
66740;DHT22;53653;52.188;8.602;2023-05-16T09:42:15;14.06;54.19
66740;DHT22;53653;52.188;8.602;2023-05-16T09:44:48;13.79;55.37
66740;DHT22;53653;52.188;8.602;2023-05-16T09:47:14;14.63;53.37
66740;DHT22;53653;52.188;8.602;2023-05-16T09:49:44;14.32;53.89
66740;DHT22;53653;52.188;8.602;2023-05-16T09:52:10;14.88;51.99
66740;DHT22;53653;52.188;8.602;2023-05-16T09:54:36;15.86;48.69
66740;DHT22;53653;52.188;8.602;2023-05-16T09:57:01;15.74;47.09
66740;DHT22;53653;52.188;8.602;2023-05-16T09:59:28;15.94;45.67
66740;DHT22;53653;52.188;8.602;2023-05-16T10:01:56;16.21;44.44
66740;DHT22;53653;52.188;8.602;2023-05-16T10:04:23;15.91;47.08
66740;DHT22;53653;52.188;8.602;2023-05-16T10:06:49;14.99;46.91
66740;DHT22;53653;52.188;8.602;2023-05-16T10:09:16;14.84;48.64
66740;DHT22;53653;52.188;8.602;2023-05-16T10:11:43;14.65;49.25
66740;DHT22;53653;52.188;8.602;2023-05-16T10:14:11;14.87;49.79
66740;DHT22;53653;52.188;8.602;2023-05-16T10:16:41;14.78;49.81
66740;DHT22;53653;52.188;8.602;2023-05-16T10:19:07;15.81;48.71
66740;DHT22;53653;52.188;8.602;2023-05-16T10:21:33;16.20;47.36
66740;DHT22;53653;52.188;8.602;2023-05-16T10:24:02;16.42;45.44
66740;DHT22;53653;52.188;8.602;2023-05-16T10:26:29;16.81;45.51
66740;DHT22;53653;52.188;8.602;2023-05-16T10:28:55;16.52;46.64
66740;DHT22;53653;52.188;8.602;2023-05-16T10:31:21;15.89;44.49
66740;DHT22;53653;52.188;8.602;2023-05-16T10:33:48;15.32;47.06
66740;DHT22;53653;52.188;8.602;2023-05-16T10:36:15;15.09;46.97
66740;DHT22;53653;52.188;8.602;2023-05-16T10:38:41;14.96;48.86
66740;DHT22;53653;52.188;8.602;2023-05-16T10:41:07;14.56;49.97
66740;DHT22;53653;52.188;8.602;2023-05-16T10:43:33;14.84;51.05
66740;DHT22;53653;52.188;8.602;2023-05-16T10:46:04;14.85;53.41
66740;DHT22;53653;52.188;8.602;2023-05-16T10:48:34;15.23;52.11
66740;DHT22;53653;52.188;8.602;2023-05-16T10:51:01;15.26;51.80
66740;DHT22;53653;52.188;8.602;2023-05-16T10:53:34;15.81;51.28
66740;DHT22;53653;52.188;8.602;2023-05-16T11:01:28;14.84;52.58
66740;DHT22;53653;52.188;8.602;2023-05-16T11:06:34;15.32;51.63
66740;DHT22;53653;52.188;8.602;2023-05-16T11:14:27;15.18;47.45
66740;DHT22;53653;52.188;8.602;2023-05-16T11:17:20;14.85;46.73
66740;DHT22;53653;52.188;8.602;2023-05-16T11:27:21;16.12;44.96
66740;DHT22;53653;52.188;8.602;2023-05-16T11:29:47;16.32;44.44
66740;DHT22;53653;52.188;8.602;2023-05-16T11:32:13;16.41;44.13
66740;DHT22;53653;52.188;8.602;2023-05-16T11:34:39;16.83;43.88
66740;DHT22;53653;52.188;8.602;2023-05-16T11:37:04;16.55;43.75
66740;DHT22;53653;52.188;8.602;2023-05-16T11:39:31;16.01;43.62
66740;DHT22;53653;52.188;8.602;2023-05-16T11:41:56;15.64;45.55
66740;DHT22;53653;52.188;8.602;2023-05-16T11:44:22;15.43;45.82
66740;DHT22;53653;52.188;8.602;2023-05-16T11:46:47;15.16;46.89
66740;DHT22;53653;52.188;8.602;2023-05-16T11:49:13;15.21;45.76
66740;DHT22;53653;52.188;8.602;2023-05-16T11:51:39;14.95;45.40
66740;DHT22;53653;52.188;8.602;2023-05-16T11:54:06;14.67;50.84
66740;DHT22;53653;52.188;8.602;2023-05-16T11:56:34;15.02;49.83
66740;DHT22;53653;52.188;8.602;2023-05-16T11:59:00;15.49;48.81
66740;DHT22;53653;52.188;8.602;2023-05-16T12:01:38;15.39;48.38
66740;DHT22;53653;52.188;8.602;2023-05-16T12:04:11;15.60;48.57
66740;DHT22;53653;52.188;8.602;2023-05-16T12:06:38;16.25;47.88
66740;DHT22;53653;52.188;8.602;2023-05-16T12:09:04;16.35;47.34
66740;DHT22;53653;52.188;8.602;2023-05-16T12:11:39;16.24;43.92
66740;DHT22;53653;52.188;8.602;2023-05-16T12:14:05;16.32;43.07
66740;DHT22;53653;52.188;8.602;2023-05-16T12:16:31;16.12;42.39
66740;DHT22;53653;52.188;8.602;2023-05-16T12:18:58;15.87;41.90
66740;DHT22;53653;52.188;8.602;2023-05-16T12:21:25;15.86;41.70
66740;DHT22;53653;52.188;8.602;2023-05-16T12:23:54;15.98;42.06
66740;DHT22;53653;52.188;8.602;2023-05-16T12:26:27;16.22;41.66
66740;DHT22;53653;52.188;8.602;2023-05-16T12:29:01;16.75;41.56
66740;DHT22;53653;52.188;8.602;2023-05-16T12:31:29;17.16;41.13
66740;DHT22;53653;52.188;8.602;2023-05-16T12:33:55;17.08;41.16
66740;DHT22;53653;52.188;8.602;2023-05-16T12:36:22;16.76;40.45
66740;DHT22;53653;52.188;8.602;2023-05-16T12:38:48;16.73;41.78
66740;DHT22;53653;52.188;8.602;2023-05-16T12:41:21;16.53;40.71
66740;DHT22;53653;52.188;8.602;2023-05-16T12:43:49;16.56;41.47
66740;DHT22;53653;52.188;8.602;2023-05-16T12:46:15;16.26;42.32
66740;DHT22;53653;52.188;8.602;2023-05-16T12:48:41;15.59;44.48
66740;DHT22;53653;52.188;8.602;2023-05-16T12:51:16;15.26;47.66
66740;DHT22;53653;52.188;8.602;2023-05-16T12:53:46;15.01;49.88
66740;DHT22;53653;52.188;8.602;2023-05-16T12:56:14;15.44;49.13
66740;DHT22;53653;52.188;8.602;2023-05-16T12:58:41;16.15;47.76
66740;DHT22;53653;52.188;8.602;2023-05-16T13:01:06;16.56;45.94
66740;DHT22;53653;52.188;8.602;2023-05-16T13:03:33;16.58;45.86
66740;DHT22;53653;52.188;8.602;2023-05-16T13:05:59;16.60;44.95
66740;DHT22;53653;52.188;8.602;2023-05-16T13:08:26;16.04;46.46
66740;DHT22;53653;52.188;8.602;2023-05-16T13:10:52;15.59;46.90
66740;DHT22;53653;52.188;8.602;2023-05-16T13:13:17;15.57;47.76
66740;DHT22;53653;52.188;8.602;2023-05-16T13:15:46;16.17;45.41
66740;DHT22;53653;52.188;8.602;2023-05-16T13:18:12;15.60;46.86
66740;DHT22;53653;52.188;8.602;2023-05-16T13:20:38;16.18;46.88
66740;DHT22;53653;52.188;8.602;2023-05-16T13:23:04;15.86;46.17
66740;DHT22;53653;52.188;8.602;2023-05-16T13:25:33;16.31;45.58
66740;DHT22;53653;52.188;8.602;2023-05-16T13:27:58;16.65;42.81
66740;DHT22;53653;52.188;8.602;2023-05-16T13:30:24;16.58;43.11
66740;DHT22;53653;52.188;8.602;2023-05-16T13:32:49;16.63;43.40
66740;DHT22;53653;52.188;8.602;2023-05-16T13:35:17;16.72;44.12
66740;DHT22;53653;52.188;8.602;2023-05-16T13:37:42;16.72;43.78
66740;DHT22;53653;52.188;8.602;2023-05-16T13:40:08;16.76;44.44
66740;DHT22;53653;52.188;8.602;2023-05-16T13:42:37;16.26;45.48
66740;DHT22;53653;52.188;8.602;2023-05-16T13:45:03;16.66;45.48
66740;DHT22;53653;52.188;8.602;2023-05-16T13:47:29;16.97;43.78
66740;DHT22;53653;52.188;8.602;2023-05-16T13:49:54;16.75;43.48
66740;DHT22;53653;52.188;8.602;2023-05-16T13:52:20;17.13;43.42
66740;DHT22;53653;52.188;8.602;2023-05-16T13:54:46;17.11;43.27
66740;DHT22;53653;52.188;8.602;2023-05-16T13:57:11;16.39;44.86
66740;DHT22;53653;52.188;8.602;2023-05-16T13:59:37;15.79;46.20
66740;DHT22;53653;52.188;8.602;2023-05-16T14:02:03;15.80;46.30
66740;DHT22;53653;52.188;8.602;2023-05-16T14:04:28;15.67;46.68
66740;DHT22;53653;52.188;8.602;2023-05-16T14:06:53;15.62;46.99
66740;DHT22;53653;52.188;8.602;2023-05-16T14:09:20;15.42;50.45
66740;DHT22;53653;52.188;8.602;2023-05-16T14:11:46;15.32;51.42
66740;DHT22;53653;52.188;8.602;2023-05-16T14:14:11;15.31;51.84
66740;DHT22;53653;52.188;8.602;2023-05-16T14:16:37;15.28;51.20
66740;DHT22;53653;52.188;8.602;2023-05-16T14:19:02;15.35;51.89
66740;DHT22;53653;52.188;8.602;2023-05-16T14:21:28;15.32;51.09
66740;DHT22;53653;52.188;8.602;2023-05-16T14:23:53;15.59;51.30
66740;DHT22;53653;52.188;8.602;2023-05-16T14:26:19;15.81;48.55
66740;DHT22;53653;52.188;8.602;2023-05-16T14:28:49;15.91;48.58
66740;DHT22;53653;52.188;8.602;2023-05-16T14:31:15;15.71;48.37
66740;DHT22;53653;52.188;8.602;2023-05-16T14:33:40;15.47;48.54
66740;DHT22;53653;52.188;8.602;2023-05-16T14:36:08;16.02;47.22
66740;DHT22;53653;52.188;8.602;2023-05-16T14:38:34;16.25;44.51
66740;DHT22;53653;52.188;8.602;2023-05-16T14:40:59;15.96;45.18
66740;DHT22;53653;52.188;8.602;2023-05-16T14:43:25;15.63;46.47
66740;DHT22;53653;52.188;8.602;2023-05-16T14:45:50;15.90;46.10
66740;DHT22;53653;52.188;8.602;2023-05-16T14:48:16;15.79;45.45
66740;DHT22;53653;52.188;8.602;2023-05-16T14:50:42;16.02;45.21
66740;DHT22;53653;52.188;8.602;2023-05-16T14:53:07;16.01;44.43
66740;DHT22;53653;52.188;8.602;2023-05-16T14:55:33;16.04;44.93
66740;DHT22;53653;52.188;8.602;2023-05-16T14:57:58;16.49;42.50
66740;DHT22;53653;52.188;8.602;2023-05-16T15:00:24;16.45;43.01
66740;DHT22;53653;52.188;8.602;2023-05-16T15:02:50;16.53;42.79
66740;DHT22;53653;52.188;8.602;2023-05-16T15:05:16;16.70;42.96
66740;DHT22;53653;52.188;8.602;2023-05-16T15:07:41;16.58;43.33
66740;DHT22;53653;52.188;8.602;2023-05-16T15:10:08;17.00;42.28
66740;DHT22;53653;52.188;8.602;2023-05-16T15:12:34;17.06;42.93
66740;DHT22;53653;52.188;8.602;2023-05-16T15:15:00;17.13;42.81
66740;DHT22;53653;52.188;8.602;2023-05-16T15:17:25;16.73;42.23
66740;DHT22;53653;52.188;8.602;2023-05-16T15:19:51;16.18;43.89
66740;DHT22;53653;52.188;8.602;2023-05-16T15:22:19;16.08;44.94
66740;DHT22;53653;52.188;8.602;2023-05-16T15:24:44;15.76;46.00
66740;DHT22;53653;52.188;8.602;2023-05-16T15:27:10;15.39;47.02
66740;DHT22;53653;52.188;8.602;2023-05-16T15:29:35;15.32;48.01
66740;DHT22;53653;52.188;8.602;2023-05-16T15:32:04;15.50;47.78
66740;DHT22;53653;52.188;8.602;2023-05-16T15:34:30;15.29;49.71
66740;DHT22;53653;52.188;8.602;2023-05-16T15:36:57;15.54;49.70
66740;DHT22;53653;52.188;8.602;2023-05-16T15:39:23;15.76;48.76
66740;DHT22;53653;52.188;8.602;2023-05-16T15:41:50;16.01;46.22
66740;DHT22;53653;52.188;8.602;2023-05-16T15:44:15;15.97;44.62
66740;DHT22;53653;52.188;8.602;2023-05-16T15:46:41;16.00;44.91
66740;DHT22;53653;52.188;8.602;2023-05-16T15:49:06;16.10;44.39
66740;DHT22;53653;52.188;8.602;2023-05-16T15:51:33;15.94;44.72
66740;DHT22;53653;52.188;8.602;2023-05-16T15:54:00;15.98;45.76
66740;DHT22;53653;52.188;8.602;2023-05-16T15:56:26;15.89;45.88
66740;DHT22;53653;52.188;8.602;2023-05-16T15:58:54;15.80;47.26
66740;DHT22;53653;52.188;8.602;2023-05-16T16:01:19;15.98;47.22